Terminal Aerodrome Forecast
Issued by NWS Albuquerque, NM

Home | Current Version | Previous Version | Text Only | Print | Product List | Glossary On
Versions: 1 2 3 4 5 6 7 8 9 10 11 12 13 14 15
000
FTUS45 KABQ 230500
TAFABQ
TAF
KABQ 230538Z 2306/2406 18011KT P6SM BKN140
     FM230900 22006KT P6SM SCT150
     FM231600 23011KT P6SM FEW120
     FM232000 24019G29KT P6SM VCSH SCT120
     FM232300 27022G32KT P6SM VCSH SCT120
     FM240100 32018G28KT P6SM FEW120
     FM240400 35011KT P6SM SKC=

USA.gov is the U.S. government's official web portal to all federal, state and local government web resources and services.